Time;durP1;ratioP1;P1;durP2;ratioP2;P2;SDS_P1;SDS_P2;PMS_P1;PMS_P2;Temp;Humidity;BMP_temperature;BMP_pressure;BME280_temperature;BME280_humidity;BME280_pressure;Samples;Min_cycle;Max_cycle;Signal;HPM_P1;HPM_P2
2021/03/13 00:00:27;;;;;;;13.88;3.45;;;7.00;99.90;;;;;;4954235;28;20670;-86
2021/03/13 00:02:53;;;;;;;16.20;3.80;;;7.00;99.90;;;;;;4966471;28;20038;-86
2021/03/13 00:05:28;;;;;;;15.93;2.85;;;7.00;99.90;;;;;;4956306;28;20082;-86
2021/03/13 00:07:54;;;;;;;12.05;3.33;;;7.10;99.90;;;;;;4972324;28;20622;-87
2021/03/13 00:10:21;;;;;;;13.77;2.97;;;7.10;99.90;;;;;;4979927;28;20043;-85
2021/03/13 00:12:47;;;;;;;15.57;3.45;;;7.10;99.90;;;;;;4953416;28;20456;-86
2021/03/13 00:15:15;;;;;;;18.08;4.38;;;7.10;99.90;;;;;;4981214;28;20031;-85
2021/03/13 00:17:49;;;;;;;13.98;3.40;;;7.10;99.90;;;;;;4975731;28;20412;-87
2021/03/13 00:20:18;;;;;;;16.15;3.75;;;7.10;99.90;;;;;;4981491;28;20038;-87
2021/03/13 00:22:44;;;;;;;16.02;3.05;;;7.10;99.90;;;;;;4975017;28;20093;-85
2021/03/13 00:25:11;;;;;;;13.82;3.15;;;7.10;99.90;;;;;;4961067;28;20030;-86
2021/03/13 00:27:46;;;;;;;14.77;2.95;;;7.00;99.90;;;;;;4986740;28;20114;-85
2021/03/13 00:30:17;;;;;;;17.45;2.75;;;7.10;99.90;;;;;;4969272;28;20093;-86
2021/03/13 00:32:44;;;;;;;13.88;2.65;;;7.00;99.90;;;;;;4960742;28;20031;-86
2021/03/13 00:35:10;;;;;;;20.02;3.92;;;7.00;99.90;;;;;;4977262;28;20030;-86
2021/03/13 00:37:36;;;;;;;17.65;2.80;;;7.00;99.90;;;;;;4969778;28;20031;-85
2021/03/13 00:40:04;;;;;;;10.75;2.65;;;6.90;99.90;;;;;;4988022;28;20042;-85
2021/03/13 00:42:30;;;;;;;14.20;2.47;;;7.00;99.90;;;;;;4990231;28;20499;-85
2021/03/13 00:44:55;;;;;;;11.02;2.25;;;6.90;99.90;;;;;;4976959;28;20097;-87
2021/03/13 00:47:21;;;;;;;12.13;2.17;;;7.00;99.90;;;;;;4977273;28;20528;-86
2021/03/13 00:49:47;;;;;;;15.15;3.03;;;6.90;99.90;;;;;;4985233;28;20126;-87
2021/03/13 00:52:12;;;;;;;13.98;2.70;;;7.00;99.90;;;;;;4969524;28;20031;-86
2021/03/13 00:54:38;;;;;;;12.27;2.40;;;7.00;99.90;;;;;;4993769;28;20061;-86
2021/03/13 00:57:04;;;;;;;14.07;2.55;;;7.00;99.90;;;;;;4994127;28;20027;-88
2021/03/13 00:59:29;;;;;;;11.57;3.30;;;7.00;99.90;;;;;;4977035;28;20038;-85
2021/03/13 01:01:55;;;;;;;11.93;3.15;;;7.00;99.90;;;;;;4976677;28;20467;-86
2021/03/13 01:04:22;;;;;;;12.25;2.78;;;7.00;99.90;;;;;;4979983;28;20227;-86
2021/03/13 01:06:47;;;;;;;12.30;2.65;;;7.00;99.90;;;;;;4984942;28;20042;-87
2021/03/13 01:09:13;;;;;;;17.73;2.63;;;7.10;99.90;;;;;;4990226;28;20053;-87
2021/03/13 01:11:38;;;;;;;12.32;2.85;;;7.00;99.90;;;;;;4980485;28;20042;-88
2021/03/13 01:14:04;;;;;;;12.82;2.50;;;7.00;99.90;;;;;;4977852;28;20417;-85
2021/03/13 01:16:29;;;;;;;9.48;2.00;;;7.00;99.90;;;;;;4966613;28;20042;-86
2021/03/13 01:18:55;;;;;;;14.30;2.70;;;7.00;99.90;;;;;;4973357;28;20480;-86
2021/03/13 01:21:21;;;;;;;14.02;3.08;;;7.00;99.90;;;;;;4973668;28;20037;-87
2021/03/13 01:23:46;;;;;;;13.90;3.38;;;6.90;99.90;;;;;;4973102;28;20062;-87
2021/03/13 01:26:12;;;;;;;15.25;3.00;;;6.80;99.90;;;;;;4986483;28;20041;-86
2021/03/13 01:28:37;;;;;;;16.00;3.50;;;6.70;99.90;;;;;;4972102;28;20046;-86
2021/03/13 01:31:03;;;;;;;11.88;3.10;;;6.60;99.90;;;;;;4985735;28;20042;-86
2021/03/13 01:33:31;;;;;;;15.20;3.30;;;6.50;99.90;;;;;;4994344;28;20022;-85
2021/03/13 01:35:57;;;;;;;13.38;2.97;;;6.40;99.90;;;;;;4974929;28;20027;-85
2021/03/13 01:38:23;;;;;;;13.32;3.42;;;6.40;99.90;;;;;;4969238;28;20385;-84
2021/03/13 01:40:48;;;;;;;16.55;2.95;;;6.30;99.90;;;;;;4965717;28;20130;-85
2021/03/13 01:43:17;;;;;;;8.40;2.80;;;6.30;99.90;;;;;;4993869;28;20069;-84
2021/03/13 01:45:43;;;;;;;10.35;2.88;;;6.20;99.90;;;;;;4981499;28;20065;-85
2021/03/13 01:48:08;;;;;;;14.50;3.90;;;6.20;99.90;;;;;;4985615;28;20062;-85
2021/03/13 01:50:34;;;;;;;18.33;6.32;;;6.30;99.90;;;;;;4983008;28;20153;-88
2021/03/13 01:53:00;;;;;;;10.98;3.80;;;6.20;99.90;;;;;;4986467;28;20117;-84
2021/03/13 01:55:26;;;;;;;9.98;4.10;;;6.20;99.90;;;;;;4986195;28;20710;-84
2021/03/13 01:57:51;;;;;;;14.90;3.97;;;6.20;99.90;;;;;;4966994;28;20110;-86
2021/03/13 02:00:20;;;;;;;13.27;4.22;;;6.20;99.90;;;;;;4967674;28;20384;-85
2021/03/13 02:02:47;;;;;;;11.65;3.80;;;6.20;99.90;;;;;;4968284;28;20488;-85
2021/03/13 02:05:22;;;;;;;15.90;4.90;;;6.20;99.90;;;;;;4972181;28;20026;-83
2021/03/13 02:08:04;;;;;;;14.77;4.63;;;6.20;99.90;;;;;;4978865;28;20185;-83
2021/03/13 02:10:37;;;;;;;10.60;3.90;;;6.20;99.90;;;;;;4964805;28;20054;-85
2021/03/13 02:13:27;;;;;;;13.93;4.10;;;6.10;99.90;;;;;;4962382;28;20034;-85
2021/03/13 02:16:15;;;;;;;15.40;4.32;;;6.10;99.90;;;;;;4969234;28;20045;-84
2021/03/13 02:19:16;;;;;;;12.48;4.20;;;6.10;99.90;;;;;;4976685;28;20035;-84
2021/03/13 02:21:53;;;;;;;14.48;4.03;;;6.10;99.90;;;;;;4956166;28;20057;-83
2021/03/13 02:24:27;;;;;;;13.02;4.60;;;6.10;99.90;;;;;;4983244;28;20047;-84
2021/03/13 02:26:59;;;;;;;14.05;4.28;;;6.10;99.90;;;;;;4992451;28;20529;-84
2021/03/13 02:29:40;;;;;;;13.40;4.80;;;6.10;99.90;;;;;;4964496;28;20137;-86
2021/03/13 02:32:10;;;;;;;12.27;4.43;;;6.10;99.90;;;;;;4984642;28;20769;-85
2021/03/13 02:34:42;;;;;;;11.75;4.75;;;6.00;99.90;;;;;;4974038;28;20030;-85
2021/03/13 02:37:14;;;;;;;12.18;4.90;;;6.00;99.90;;;;;;4962412;28;20026;-86
2021/03/13 02:39:42;;;;;;;14.20;5.60;;;6.10;99.90;;;;;;4995924;28;20042;-85
2021/03/13 02:42:09;;;;;;;11.27;5.63;;;6.00;99.90;;;;;;4995798;28;20038;-85
2021/03/13 02:44:37;;;;;;;10.95;5.25;;;6.10;99.90;;;;;;4980191;28;20030;-86
2021/03/13 02:47:05;;;;;;;11.77;6.15;;;6.00;99.90;;;;;;4974749;28;20089;-85
2021/03/13 02:49:33;;;;;;;16.00;6.38;;;6.10;99.90;;;;;;4982482;28;20047;-85
2021/03/13 02:51:59;;;;;;;14.75;6.00;;;6.10;99.90;;;;;;4994847;28;20029;-86
2021/03/13 02:54:25;;;;;;;13.38;5.72;;;6.10;99.90;;;;;;4980247;28;20086;-84
2021/03/13 02:56:53;;;;;;;13.38;6.30;;;6.00;99.90;;;;;;4977340;28;20030;-86
2021/03/13 02:59:20;;;;;;;8.48;4.90;;;6.10;99.90;;;;;;4995871;28;20022;-85
2021/03/13 03:01:53;;;;;;;12.82;6.35;;;6.10;99.90;;;;;;4987284;28;20373;-86
2021/03/13 03:04:19;;;;;;;10.82;6.35;;;6.00;99.90;;;;;;4988891;28;20101;-86
2021/03/13 03:06:51;;;;;;;14.15;6.47;;;6.00;99.90;;;;;;4961826;28;20039;-86
2021/03/13 03:09:18;;;;;;;13.45;7.40;;;6.00;99.90;;;;;;4995514;28;20092;-86
2021/03/13 03:11:45;;;;;;;11.02;6.70;;;6.00;99.90;;;;;;4987474;28;20055;-85
2021/03/13 03:14:14;;;;;;;13.05;6.90;;;6.10;99.90;;;;;;4969814;28;20505;-85
2021/03/13 03:16:42;;;;;;;13.93;7.05;;;6.10;99.90;;;;;;4962115;28;20046;-86
2021/03/13 03:19:09;;;;;;;14.52;6.95;;;6.10;99.90;;;;;;4975914;28;20035;-85
2021/03/13 03:21:36;;;;;;;13.32;7.85;;;6.10;99.90;;;;;;4958652;28;20033;-86
2021/03/13 03:24:02;;;;;;;12.07;6.40;;;6.10;99.90;;;;;;4975946;28;20050;-85
2021/03/13 03:26:28;;;;;;;20.50;7.68;;;6.10;99.90;;;;;;4975818;28;20037;-86
2021/03/13 03:28:54;;;;;;;16.13;6.90;;;6.10;99.90;;;;;;4992808;28;20110;-85
2021/03/13 03:31:19;;;;;;;15.82;7.07;;;6.20;99.90;;;;;;4995162;28;20046;-85
2021/03/13 03:33:45;;;;;;;13.40;6.95;;;6.20;99.90;;;;;;4986922;28;20054;-84
2021/03/13 03:36:11;;;;;;;16.80;7.25;;;6.20;99.90;;;;;;4975586;28;20452;-86
2021/03/13 03:38:37;;;;;;;14.35;6.07;;;6.20;99.90;;;;;;4958285;28;20397;-86
2021/03/13 03:41:03;;;;;;;10.60;6.03;;;6.20;99.90;;;;;;4991539;28;20038;-86
2021/03/13 03:43:40;;;;;;;15.70;5.90;;;6.20;99.90;;;;;;4975748;28;20579;-86
2021/03/13 03:46:07;;;;;;;11.32;6.10;;;6.20;99.90;;;;;;4968815;28;20042;-85
2021/03/13 03:48:36;;;;;;;13.07;4.88;;;6.20;99.90;;;;;;4962781;28;20031;-84
2021/03/13 03:51:09;;;;;;;20.60;6.00;;;6.20;99.90;;;;;;4990892;28;20408;-84
2021/03/13 03:53:39;;;;;;;10.23;4.82;;;6.20;99.90;;;;;;4964075;28;20136;-85
2021/03/13 03:56:07;;;;;;;13.00;4.88;;;6.30;99.90;;;;;;4964765;28;20089;-85
2021/03/13 03:58:44;;;;;;;13.25;5.50;;;6.30;99.90;;;;;;4971697;28;20019;-85
2021/03/13 04:01:11;;;;;;;12.20;4.95;;;6.30;99.90;;;;;;4961213;28;20133;-84
2021/03/13 04:03:51;;;;;;;15.70;6.32;;;6.30;99.90;;;;;;4986602;28;20504;-85
2021/03/13 04:06:18;;;;;;;10.02;4.80;;;6.30;99.90;;;;;;4969914;28;20081;-84
2021/03/13 04:08:45;;;;;;;16.77;5.05;;;6.30;99.90;;;;;;4977749;28;20031;-85
2021/03/13 04:11:22;;;;;;;11.68;5.50;;;6.30;99.90;;;;;;4989912;28;20035;-85
2021/03/13 04:13:57;;;;;;;9.75;4.70;;;6.40;99.90;;;;;;4965579;28;20026;-85
2021/03/13 04:16:23;;;;;;;13.07;4.40;;;6.30;99.90;;;;;;4963278;28;20492;-85
2021/03/13 04:18:49;;;;;;;12.02;4.65;;;6.40;99.90;;;;;;4973049;28;20027;-85
2021/03/13 04:21:16;;;;;;;15.80;4.90;;;6.40;99.90;;;;;;4978779;28;20038;-85
2021/03/13 04:23:47;;;;;;;13.38;5.45;;;6.40;99.90;;;;;;4985907;28;20495;-84
2021/03/13 04:26:18;;;;;;;13.45;4.82;;;6.40;99.90;;;;;;4986383;28;20034;-86
2021/03/13 04:28:44;;;;;;;13.00;4.63;;;6.40;99.90;;;;;;4960116;28;20170;-86
2021/03/13 04:31:11;;;;;;;10.07;4.82;;;6.40;99.90;;;;;;4972433;28;20106;-85
2021/03/13 04:33:38;;;;;;;11.45;5.25;;;6.40;99.90;;;;;;4963861;28;20388;-84
2021/03/13 04:36:04;;;;;;;11.43;5.30;;;6.40;99.90;;;;;;4976217;28;20038;-86
2021/03/13 04:38:31;;;;;;;11.60;4.38;;;6.40;99.90;;;;;;4976533;28;20365;-86
2021/03/13 04:40:58;;;;;;;13.45;4.53;;;6.50;99.90;;;;;;4958769;28;20089;-85
2021/03/13 04:43:25;;;;;;;10.38;4.75;;;6.50;99.90;;;;;;4979906;28;20555;-85
2021/03/13 04:45:56;;;;;;;10.23;5.10;;;6.50;99.90;;;;;;4976586;28;20081;-87
2021/03/13 04:48:22;;;;;;;10.98;4.43;;;6.50;99.90;;;;;;4963162;28;20593;-85
2021/03/13 04:50:47;;;;;;;8.93;4.78;;;6.50;99.90;;;;;;4989923;28;20089;-85
2021/03/13 04:53:13;;;;;;;14.27;5.43;;;6.50;99.90;;;;;;4959852;28;20070;-85
2021/03/13 04:55:38;;;;;;;12.57;4.72;;;6.60;99.90;;;;;;4968190;28;20031;-84
2021/03/13 04:58:04;;;;;;;13.95;5.22;;;6.60;99.90;;;;;;4966808;28;20035;-85
2021/03/13 05:00:30;;;;;;;9.93;4.40;;;6.60;99.90;;;;;;4961331;28;20037;-85
2021/03/13 05:02:55;;;;;;;15.00;4.50;;;6.70;99.90;;;;;;4972469;28;20034;-85
2021/03/13 05:05:21;;;;;;;11.80;4.70;;;6.70;99.90;;;;;;4961303;28;20165;-85
2021/03/13 05:07:47;;;;;;;11.07;4.57;;;6.70;99.90;;;;;;4966696;28;20112;-85
2021/03/13 05:10:13;;;;;;;11.02;4.25;;;6.70;99.90;;;;;;4985355;28;20051;-84
2021/03/13 05:12:39;;;;;;;10.50;4.35;;;6.70;99.90;;;;;;4960103;28;20023;-85
2021/03/13 05:15:07;;;;;;;13.30;4.43;;;6.70;99.90;;;;;;4989335;28;20481;-84
2021/03/13 05:17:33;;;;;;;10.52;5.18;;;6.80;99.90;;;;;;4962887;28;20041;-85
2021/03/13 05:19:58;;;;;;;9.18;4.32;;;6.70;99.90;;;;;;4965419;28;20393;-85
2021/03/13 05:22:24;;;;;;;7.90;4.35;;;6.70;99.90;;;;;;4969266;28;20027;-85
2021/03/13 05:24:49;;;;;;;10.80;3.88;;;6.70;99.90;;;;;;4958999;28;20041;-83
2021/03/13 05:27:15;;;;;;;9.60;4.28;;;6.80;99.90;;;;;;4970932;28;20030;-84
2021/03/13 05:29:41;;;;;;;9.50;4.18;;;6.80;99.90;;;;;;4980573;28;20038;-84
2021/03/13 05:32:07;;;;;;;9.88;4.05;;;6.80;99.90;;;;;;4963957;28;20058;-85
2021/03/13 05:34:32;;;;;;;10.82;4.82;;;6.70;99.90;;;;;;4987437;28;20045;-84
2021/03/13 05:36:58;;;;;;;10.90;4.18;;;6.80;99.90;;;;;;4976369;28;20066;-84
2021/03/13 05:39:24;;;;;;;7.65;3.60;;;6.80;99.90;;;;;;4970035;28;20488;-85
2021/03/13 05:41:51;;;;;;;11.55;4.40;;;6.80;99.90;;;;;;4964869;28;20035;-86
2021/03/13 05:44:16;;;;;;;6.82;4.03;;;6.80;99.90;;;;;;4962854;28;20118;-86
2021/03/13 05:46:45;;;;;;;8.13;3.65;;;6.80;99.90;;;;;;4989277;28;20129;-83
2021/03/13 05:49:11;;;;;;;10.23;4.53;;;6.80;99.90;;;;;;4955546;28;20074;-83
2021/03/13 05:51:45;;;;;;;10.48;4.13;;;6.80;99.90;;;;;;4963235;28;20023;-84
2021/03/13 05:54:16;;;;;;;12.00;4.20;;;6.80;99.90;;;;;;4980312;28;20105;-85
2021/03/13 05:56:42;;;;;;;10.15;4.07;;;6.80;99.90;;;;;;4973417;28;20568;-84
2021/03/13 05:59:10;;;;;;;10.73;3.70;;;6.90;99.90;;;;;;4988908;28;20018;-85
2021/03/13 06:01:37;;;;;;;11.88;3.40;;;6.80;99.90;;;;;;4980224;28;20496;-83
2021/03/13 06:04:02;;;;;;;10.30;3.35;;;6.90;99.90;;;;;;4964106;28;20094;-85
2021/03/13 06:06:34;;;;;;;12.00;3.45;;;6.90;99.90;;;;;;4985651;28;20034;-85
2021/03/13 06:09:00;;;;;;;8.93;3.30;;;6.90;99.90;;;;;;4958975;28;20023;-83
2021/03/13 06:11:26;;;;;;;7.85;3.22;;;6.90;99.90;;;;;;4986597;28;20062;-83
2021/03/13 06:13:51;;;;;;;10.25;3.38;;;6.90;99.90;;;;;;4980539;28;20069;-84
2021/03/13 06:16:17;;;;;;;8.40;2.92;;;7.00;99.90;;;;;;4962303;28;20053;-83
2021/03/13 06:18:48;;;;;;;4.18;1.95;;;7.00;99.90;;;;;;4971877;28;20077;-83
2021/03/13 06:21:28;;;;;;;8.35;1.20;;;7.00;99.90;;;;;;4948087;28;20104;-83
2021/03/13 06:24:02;;;;;;;3.80;0.60;;;6.80;99.90;;;;;;4968362;28;20423;-82
2021/03/13 06:26:49;;;;;;;3.08;0.73;;;6.40;99.90;;;;;;4990078;28;20039;-84
2021/03/13 06:29:14;;;;;;;2.22;0.47;;;6.10;99.90;;;;;;4978827;28;20034;-85
2021/03/13 06:31:41;;;;;;;3.30;0.52;;;5.80;99.90;;;;;;4973123;28;20030;-86
2021/03/13 06:34:06;;;;;;;4.15;0.73;;;5.80;99.90;;;;;;4973226;28;20049;-85
2021/03/13 06:36:32;;;;;;;4.68;0.95;;;5.80;99.90;;;;;;4977253;28;20488;-86
2021/03/13 06:38:57;;;;;;;4.60;2.08;;;5.90;99.90;;;;;;4973736;28;20073;-85
2021/03/13 06:41:24;;;;;;;6.20;2.25;;;6.00;99.90;;;;;;4957571;28;20047;-86
2021/03/13 06:43:52;;;;;;;8.02;1.92;;;6.10;99.90;;;;;;4955779;28;20038;-86
2021/03/13 06:46:19;;;;;;;6.50;1.70;;;6.30;99.90;;;;;;4975465;28;20035;-85
2021/03/13 06:48:52;;;;;;;6.05;2.35;;;6.40;99.90;;;;;;4975954;28;20436;-86
2021/03/13 06:51:24;;;;;;;7.30;1.83;;;6.50;99.90;;;;;;4973174;28;20137;-86
2021/03/13 06:54:13;;;;;;;3.80;1.35;;;6.50;99.90;;;;;;4956992;28;20121;-87
2021/03/13 06:56:40;;;;;;;4.30;1.42;;;6.50;99.90;;;;;;4970288;28;20031;-87
2021/03/13 06:59:29;;;;;;;6.13;1.02;;;6.50;99.90;;;;;;4958112;28;20037;-85
2021/03/13 07:02:12;;;;;;;5.03;0.98;;;6.50;99.90;;;;;;4982832;28;20365;-85
2021/03/13 07:04:42;;;;;;;4.72;1.10;;;6.50;99.90;;;;;;4987178;28;20038;-86
2021/03/13 07:07:08;;;;;;;4.30;0.80;;;6.50;99.90;;;;;;4975959;28;20041;-85
2021/03/13 07:09:54;;;;;;;5.88;1.20;;;6.50;99.90;;;;;;4967692;28;20702;-86
2021/03/13 07:12:40;;;;;;;5.00;0.93;;;6.40;99.90;;;;;;4968052;28;20445;-86
2021/03/13 07:15:18;;;;;;;4.70;1.75;;;6.40;99.90;;;;;;4958408;28;20172;-85
2021/03/13 07:17:55;;;;;;;9.40;1.10;;;6.50;99.90;;;;;;4966343;28;20121;-87
2021/03/13 07:20:30;;;;;;;8.13;1.20;;;6.40;99.90;;;;;;4985117;28;20092;-86
2021/03/13 07:23:05;;;;;;;5.85;1.08;;;6.50;99.90;;;;;;4989524;28;20046;-87
2021/03/13 07:25:32;;;;;;;7.32;1.73;;;6.50;99.90;;;;;;4955102;28;20043;-87
2021/03/13 07:28:03;;;;;;;5.38;0.93;;;6.50;99.90;;;;;;4981041;28;20030;-85
2021/03/13 07:30:32;;;;;;;8.85;1.23;;;6.50;99.90;;;;;;4959988;28;20108;-85
2021/03/13 07:33:09;;;;;;;7.20;1.35;;;6.50;99.90;;;;;;4957025;28;20045;-89
2021/03/13 07:35:40;;;;;;;6.63;0.95;;;6.50;99.90;;;;;;4967854;28;20077;-86
2021/03/13 07:38:10;;;;;;;5.97;1.35;;;6.50;99.90;;;;;;4965975;28;20105;-86
2021/03/13 07:40:43;;;;;;;8.15;1.77;;;6.50;99.90;;;;;;4959507;28;20026;-86
2021/03/13 07:43:12;;;;;;;13.15;1.38;;;6.60;99.90;;;;;;4959694;28;20069;-83
2021/03/13 07:45:39;;;;;;;15.68;2.13;;;6.60;99.90;;;;;;4969892;28;20053;-84
2021/03/13 07:48:06;;;;;;;9.38;2.03;;;6.60;99.90;;;;;;4979951;28;20050;-85
2021/03/13 07:50:32;;;;;;;11.95;1.90;;;6.70;99.90;;;;;;4967929;28;20137;-85
2021/03/13 07:52:58;;;;;;;9.18;1.60;;;6.70;99.90;;;;;;4973295;28;20129;-86
2021/03/13 07:55:25;;;;;;;12.30;2.08;;;6.80;99.90;;;;;;4968174;28;20027;-86
2021/03/13 07:57:52;;;;;;;11.82;2.03;;;6.80;99.90;;;;;;4954870;28;20034;-87
2021/03/13 08:00:38;;;;;;;9.68;1.90;;;6.90;99.90;;;;;;4968560;28;20416;-87
2021/03/13 08:03:03;;;;;;;15.52;3.15;;;6.90;99.90;;;;;;4973556;28;20057;-86
2021/03/13 08:05:56;;;;;;;11.77;2.40;;;7.00;99.90;;;;;;4977491;28;20030;-84
2021/03/13 08:08:36;;;;;;;12.73;2.13;;;7.00;99.90;;;;;;4983749;28;20057;-87
2021/03/13 08:11:03;;;;;;;10.95;2.30;;;7.10;99.90;;;;;;4966611;28;20069;-84
2021/03/13 08:13:29;;;;;;;16.23;3.20;;;7.20;99.90;;;;;;4980599;28;20046;-87
2021/03/13 08:16:07;;;;;;;13.00;2.78;;;7.30;99.90;;;;;;4974978;28;20046;-85
2021/03/13 08:18:46;;;;;;;14.57;2.33;;;7.30;99.90;;;;;;4954501;28;20037;-86
2021/03/13 08:21:18;;;;;;;13.00;2.45;;;7.40;99.90;;;;;;4958247;28;20026;-86
2021/03/13 08:24:00;;;;;;;14.85;2.70;;;7.50;99.90;;;;;;4964769;28;20057;-86
2021/03/13 08:26:36;;;;;;;13.65;2.40;;;7.70;99.90;;;;;;4983605;28;20030;-85
2021/03/13 08:29:06;;;;;;;10.45;2.45;;;7.90;99.90;;;;;;4958089;28;20035;-85
2021/03/13 08:31:32;;;;;;;13.27;2.38;;;7.90;99.90;;;;;;4971136;28;20125;-85
2021/03/13 08:34:04;;;;;;;15.90;2.78;;;7.80;99.90;;;;;;4963498;28;20034;-85
2021/03/13 08:36:32;;;;;;;14.68;2.28;;;7.50;99.90;;;;;;4954553;28;20045;-87
2021/03/13 08:39:04;;;;;;;19.50;3.42;;;7.30;99.90;;;;;;4968061;28;20030;-87
2021/03/13 08:41:42;;;;;;;18.27;2.40;;;7.10;99.90;;;;;;4954893;28;20031;-85
2021/03/13 08:44:14;;;;;;;11.60;2.40;;;6.90;99.90;;;;;;4956578;28;20498;-86
2021/03/13 08:47:08;;;;;;;14.75;2.90;;;7.00;99.90;;;;;;4971310;28;20034;-86
2021/03/13 08:49:47;;;;;;;14.20;2.50;;;7.10;99.90;;;;;;4951007;28;20035;-87
2021/03/13 08:52:18;;;;;;;16.35;2.60;;;7.20;99.90;;;;;;4962313;28;20129;-86
2021/03/13 08:54:44;;;;;;;15.20;2.83;;;7.30;99.90;;;;;;4967515;28;20489;-87
2021/03/13 08:57:10;;;;;;;21.27;3.20;;;7.30;99.90;;;;;;4957030;28;20105;-86
2021/03/13 08:59:38;;;;;;;16.95;2.45;;;7.40;99.90;;;;;;4964810;28;20042;-86
2021/03/13 09:02:17;;;;;;;17.40;3.53;;;7.40;99.90;;;;;;4956392;29;20113;-91
2021/03/13 09:04:50;;;;;;;19.50;2.75;;;7.50;99.90;;;;;;4954559;29;20035;-90
2021/03/13 09:07:18;;;;;;;12.13;2.50;;;7.40;99.90;;;;;;4959305;28;20030;-90
2021/03/13 09:09:44;;;;;;;16.05;2.60;;;7.50;99.90;;;;;;4973781;28;20051;-89
2021/03/13 09:12:12;;;;;;;15.77;3.13;;;7.50;99.90;;;;;;4972973;28;20046;-91
2021/03/13 09:14:41;;;;;;;13.70;3.00;;;7.60;99.90;;;;;;4957094;28;20203;-88
2021/03/13 09:17:21;;;;;;;20.45;3.28;;;7.60;99.90;;;;;;4956305;28;20504;-91
2021/03/13 09:19:49;;;;;;;17.90;3.40;;;7.70;99.90;;;;;;4972785;28;20050;-90
2021/03/13 09:22:15;;;;;;;18.15;4.30;;;7.70;99.90;;;;;;4972277;28;20058;-90
2021/03/13 09:24:43;;;;;;;15.35;3.33;;;7.80;99.90;;;;;;4956455;28;20070;-91
2021/03/13 09:27:09;;;;;;;26.65;4.18;;;7.80;99.90;;;;;;4934155;29;20032;-91
2021/03/13 09:29:37;;;;;;;22.15;3.45;;;7.90;99.90;;;;;;4961902;28;20055;-88
2021/03/13 09:32:03;;;;;;;19.85;3.75;;;7.80;99.90;;;;;;4963315;28;20118;-89
2021/03/13 09:34:30;;;;;;;18.48;2.90;;;7.80;99.90;;;;;;4953377;29;20770;-88
2021/03/13 09:36:57;;;;;;;18.02;3.35;;;7.80;99.90;;;;;;4952219;28;20496;-85
2021/03/13 09:39:27;;;;;;;22.98;4.28;;;7.80;99.90;;;;;;4963807;28;20372;-86
2021/03/13 09:42:06;;;;;;;20.42;3.67;;;7.90;99.90;;;;;;4958583;28;20062;-86
2021/03/13 09:44:44;;;;;;;16.45;3.97;;;8.00;99.90;;;;;;4954894;28;20031;-86
2021/03/13 09:47:21;;;;;;;24.75;4.35;;;7.90;99.90;;;;;;4938486;28;20584;-84
2021/03/13 09:49:58;;;;;;;21.45;3.85;;;7.90;99.90;;;;;;4960743;28;20066;-85
2021/03/13 09:52:33;;;;;;;15.32;3.40;;;8.00;99.90;;;;;;4964129;28;20039;-85
2021/03/13 09:55:16;;;;;;;18.95;2.88;;;8.00;99.90;;;;;;4955697;28;20476;-86
2021/03/13 09:57:55;;;;;;;19.15;3.35;;;8.00;99.90;;;;;;4968161;28;20050;-87
2021/03/13 10:00:25;;;;;;;13.75;3.53;;;7.90;99.90;;;;;;4967910;28;20042;-87
2021/03/13 10:02:52;;;;;;;17.92;4.22;;;7.70;99.90;;;;;;4957491;28;20097;-85
2021/03/13 10:05:20;;;;;;;10.98;2.95;;;7.40;99.90;;;;;;4967713;28;20673;-85
2021/03/13 10:07:49;;;;;;;15.48;3.55;;;6.80;99.90;;;;;;4961345;28;20097;-84
2021/03/13 10:10:16;;;;;;;16.50;3.97;;;6.30;99.90;;;;;;4959966;28;20047;-86
2021/03/13 10:12:44;;;;;;;16.10;3.95;;;6.00;99.90;;;;;;4968563;28;20050;-86
2021/03/13 10:15:25;;;;;;;18.15;4.07;;;5.90;99.90;;;;;;4946439;28;20667;-84
2021/03/13 10:18:10;;;;;;;18.98;3.45;;;5.90;99.90;;;;;;4962341;28;20067;-84
2021/03/13 10:20:57;;;;;;;22.42;4.63;;;5.90;99.90;;;;;;4957535;28;20043;-85
2021/03/13 10:23:31;;;;;;;17.98;4.20;;;5.90;99.90;;;;;;4952612;29;20732;-86
2021/03/13 10:25:59;;;;;;;22.33;4.65;;;5.90;99.90;;;;;;4963116;28;20057;-85
2021/03/13 10:28:30;;;;;;;25.70;5.72;;;6.10;99.90;;;;;;4959967;28;20043;-85
2021/03/13 10:31:28;;;;;;;17.98;4.22;;;6.70;99.90;;;;;;4954186;28;20047;-84
2021/03/13 10:33:55;;;;;;;27.67;6.40;;;7.10;99.90;;;;;;4952819;28;20088;-87
2021/03/13 10:36:46;;;;;;;27.90;5.47;;;7.10;99.90;;;;;;4973907;28;20049;-85
2021/03/13 10:39:11;;;;;;;19.70;3.95;;;6.80;99.90;;;;;;4953122;28;20035;-83
2021/03/13 10:41:48;;;;;;;16.05;3.00;;;6.40;99.90;;;;;;4948975;29;20558;-84
2021/03/13 10:44:16;;;;;;;18.23;3.20;;;5.90;99.90;;;;;;4971518;28;20394;-84
2021/03/13 10:46:42;;;;;;;20.02;4.20;;;5.60;99.90;;;;;;4961557;28;20039;-85
2021/03/13 10:49:08;;;;;;;20.48;4.97;;;5.50;99.90;;;;;;4960648;28;20504;-84
2021/03/13 10:51:41;;;;;;;23.00;4.55;;;5.60;99.90;;;;;;4974688;28;20066;-85
2021/03/13 10:54:30;;;;;;;26.02;4.18;;;5.70;99.90;;;;;;4971312;28;20386;-85
2021/03/13 10:57:04;;;;;;;33.05;4.78;;;6.80;99.90;;;;;;4956135;28;20118;-87
2021/03/13 10:59:34;;;;;;;26.70;4.82;;;7.50;99.90;;;;;;4965725;28;20028;-86
2021/03/13 11:02:00;;;;;;;23.75;4.40;;;7.40;99.90;;;;;;4953373;29;20628;-85
2021/03/13 11:04:25;;;;;;;22.98;4.40;;;7.40;99.90;;;;;;4952046;28;20114;-85
2021/03/13 11:06:55;;;;;;;24.77;5.30;;;7.30;99.90;;;;;;4956109;28;20035;-86
2021/03/13 11:09:23;;;;;;;28.20;4.30;;;7.20;99.90;;;;;;4971915;28;20031;-88
2021/03/13 11:11:49;;;;;;;32.88;6.13;;;7.20;99.90;;;;;;4969407;28;20105;-87
2021/03/13 11:14:15;;;;;;;22.85;4.55;;;7.30;99.90;;;;;;4961159;28;20577;-86
2021/03/13 11:16:41;;;;;;;27.40;5.13;;;8.00;99.90;;;;;;4984550;28;20045;-90
2021/03/13 11:19:07;;;;;;;25.98;4.63;;;8.40;99.90;;;;;;4953946;28;20428;-88
2021/03/13 11:21:33;;;;;;;20.98;3.83;;;8.60;99.90;;;;;;4960392;28;20484;-87
2021/03/13 11:23:59;;;;;;;24.88;4.43;;;8.60;99.90;;;;;;4964120;28;20111;-89
2021/03/13 11:26:25;;;;;;;23.55;4.63;;;9.10;99.90;;;;;;4964868;28;20129;-85
2021/03/13 11:28:51;;;;;;;24.98;5.20;;;9.50;99.90;;;;;;4955846;28;20039;-85
2021/03/13 11:31:18;;;;;;;23.30;3.55;;;9.50;99.90;;;;;;4966678;28;20067;-85
2021/03/13 11:33:45;;;;;;;15.05;3.10;;;9.10;99.90;;;;;;4960551;28;20485;-85
2021/03/13 11:36:11;;;;;;;17.33;3.63;;;8.70;99.90;;;;;;4962124;28;20039;-84
2021/03/13 11:38:37;;;;;;;20.50;3.40;;;8.40;99.90;;;;;;4958459;28;20036;-85
2021/03/13 11:41:05;;;;;;;16.10;2.72;;;8.00;99.90;;;;;;4972784;28;20104;-87
2021/03/13 11:43:35;;;;;;;13.07;2.45;;;8.60;99.90;;;;;;4965060;28;20086;-84
2021/03/13 11:46:01;;;;;;;10.57;2.28;;;9.30;99.90;;;;;;4961065;28;20070;-82
2021/03/13 11:48:27;;;;;;;15.02;2.58;;;10.10;99.90;;;;;;4956096;28;20568;-85
2021/03/13 11:50:53;;;;;;;16.00;3.38;;;10.80;99.90;;;;;;4951062;28;20110;-84
2021/03/13 11:53:18;;;;;;;13.77;3.00;;;11.50;99.90;;;;;;4949830;28;20039;-85
2021/03/13 11:55:45;;;;;;;12.93;2.30;;;11.80;99.90;;;;;;4957203;28;20043;-83
2021/03/13 11:58:11;;;;;;;15.35;2.53;;;11.90;99.90;;;;;;4964803;28;20129;-84
2021/03/13 12:00:38;;;;;;;10.65;2.38;;;12.10;99.80;;;;;;4954711;28;20526;-85
2021/03/13 12:03:04;;;;;;;13.57;2.72;;;12.40;99.80;;;;;;4956553;28;20031;-86
2021/03/13 12:05:30;;;;;;;11.98;2.67;;;12.60;98.30;;;;;;4970234;28;20049;-85
2021/03/13 12:07:55;;;;;;;12.82;2.63;;;12.60;97.90;;;;;;4960627;28;20151;-86
2021/03/13 12:10:21;;;;;;;14.43;2.47;;;12.70;97.60;;;;;;4964811;28;20097;-86
2021/03/13 12:12:47;;;;;;;12.73;3.38;;;13.00;97.00;;;;;;4953741;28;20043;-85
2021/03/13 12:15:14;;;;;;;14.30;2.63;;;12.30;96.30;;;;;;4960040;28;20108;-85
2021/03/13 12:17:40;;;;;;;15.40;3.47;;;11.30;98.00;;;;;;4962091;28;20035;-87
2021/03/13 12:20:08;;;;;;;19.98;3.33;;;10.40;98.50;;;;;;4961510;28;20062;-85
2021/03/13 12:22:34;;;;;;;14.85;2.55;;;9.60;99.90;;;;;;4955365;28;20409;-85
2021/03/13 12:25:00;;;;;;;13.55;2.70;;;9.10;99.90;;;;;;4969803;28;20041;-85
2021/03/13 12:27:26;;;;;;;7.32;1.60;;;8.60;99.90;;;;;;4969979;28;20039;-85
2021/03/13 12:29:54;;;;;;;9.07;1.58;;;8.20;99.90;;;;;;4958819;28;20082;-86
2021/03/13 12:32:20;;;;;;;9.90;1.92;;;8.00;99.90;;;;;;4964018;28;20034;-84
2021/03/13 12:34:46;;;;;;;12.32;1.38;;;7.80;99.90;;;;;;4955758;28;20394;-86
2021/03/13 12:37:13;;;;;;;6.28;1.58;;;7.90;99.90;;;;;;4973658;28;20401;-86
2021/03/13 12:39:39;;;;;;;8.50;1.95;;;8.00;99.90;;;;;;4968633;28;20115;-83
2021/03/13 12:42:06;;;;;;;9.57;2.10;;;8.10;99.90;;;;;;4970393;28;20038;-84
2021/03/13 12:44:32;;;;;;;10.48;1.98;;;8.10;99.90;;;;;;4965835;28;20143;-85
2021/03/13 12:46:58;;;;;;;13.43;2.20;;;8.20;99.90;;;;;;4958889;29;20035;-86
2021/03/13 12:49:24;;;;;;;12.27;2.28;;;8.40;99.90;;;;;;4954839;28;20034;-86
2021/03/13 12:51:53;;;;;;;9.93;1.90;;;8.70;99.90;;;;;;4960896;28;20405;-87
2021/03/13 12:54:20;;;;;;;10.95;1.70;;;9.00;99.90;;;;;;4975510;28;20061;-88
2021/03/13 12:56:46;;;;;;;11.88;2.17;;;9.30;99.90;;;;;;4991166;28;20085;-88
2021/03/13 12:59:12;;;;;;;11.63;1.95;;;9.50;99.90;;;;;;4979981;28;20062;-86